createdAt,value
2023-05-22T00:00:21.228Z,17.33
2023-05-22T00:03:08.617Z,17.45
2023-05-22T00:05:59.005Z,17.42
2023-05-22T00:08:46.400Z,17.73
2023-05-22T00:11:36.419Z,18.08
2023-05-22T00:14:23.636Z,16.60
2023-05-22T00:17:15.203Z,17.25
2023-05-22T00:20:12.099Z,17.85
2023-05-22T00:23:01.883Z,17.10
2023-05-22T00:25:50.774Z,17.08
2023-05-22T00:28:38.110Z,17.17
2023-05-22T00:31:25.709Z,18.48
2023-05-22T00:34:15.359Z,17.98
2023-05-22T00:37:02.623Z,18.08
2023-05-22T00:39:49.843Z,17.77
2023-05-22T00:42:37.137Z,17.95
2023-05-22T00:45:24.641Z,18.00
2023-05-22T00:48:12.523Z,19.40
2023-05-22T00:51:03.527Z,19.42
2023-05-22T00:53:54.681Z,18.33
2023-05-22T00:56:46.496Z,18.90
2023-05-22T00:59:34.102Z,18.67
2023-05-22T01:02:21.734Z,19.60
2023-05-22T01:05:11.289Z,18.95
2023-05-22T01:08:01.446Z,19.15
2023-05-22T01:10:54.535Z,19.85
2023-05-22T01:14:11.114Z,20.02
2023-05-22T01:17:23.542Z,20.60
2023-05-22T01:20:38.413Z,15.02
2023-05-22T01:24:01.297Z,20.27
2023-05-22T01:26:54.143Z,14.35
2023-05-22T01:29:44.614Z,21.02
2023-05-22T01:32:34.929Z,19.50
2023-05-22T01:35:22.909Z,21.58
2023-05-22T01:38:11.289Z,20.27
2023-05-22T01:40:59.132Z,20.02
2023-05-22T01:43:47.140Z,21.58
2023-05-22T01:46:34.458Z,21.27
2023-05-22T01:49:22.003Z,21.10
2023-05-22T01:52:34.514Z,22.17
2023-05-22T01:55:45.351Z,21.00
2023-05-22T01:59:02.064Z,20.27
2023-05-22T02:01:52.228Z,21.35
2023-05-22T02:04:42.419Z,21.25
2023-05-22T02:07:33.340Z,21.63
2023-05-22T02:10:21.898Z,20.05
2023-05-22T02:13:11.872Z,22.33
2023-05-22T02:15:59.419Z,20.20
2023-05-22T02:18:46.765Z,22.63
2023-05-22T02:21:35.434Z,21.17
2023-05-22T02:24:24.881Z,21.08
2023-05-22T02:27:12.243Z,20.90
2023-05-22T02:29:59.482Z,20.00
2023-05-22T02:32:46.819Z,19.58
2023-05-22T02:35:34.090Z,18.88
2023-05-22T02:38:21.282Z,18.48
2023-05-22T02:41:11.257Z,18.75
2023-05-22T02:43:58.588Z,18.92
2023-05-22T02:46:48.814Z,20.33
2023-05-22T02:49:38.870Z,18.95
2023-05-22T02:52:26.510Z,18.35
2023-05-22T02:55:13.837Z,18.33
2023-05-22T02:58:01.350Z,18.23
2023-05-22T03:00:48.614Z,18.40
2023-05-22T03:03:36.397Z,19.25
2023-05-22T03:06:25.535Z,19.10
2023-05-22T03:09:16.396Z,17.50
2023-05-22T03:12:04.959Z,17.35
2023-05-22T03:14:52.146Z,17.58
2023-05-22T03:17:39.548Z,17.05
2023-05-22T03:20:27.012Z,17.98
2023-05-22T03:23:14.975Z,17.90
2023-05-22T03:26:02.161Z,16.85
2023-05-22T03:28:50.812Z,17.27
2023-05-22T03:31:39.196Z,17.52
2023-05-22T03:34:27.504Z,17.45
2023-05-22T03:37:14.823Z,18.85
2023-05-22T03:40:02.518Z,19.17
2023-05-22T03:42:52.319Z,19.25
2023-05-22T03:45:39.602Z,19.77
2023-05-22T03:48:26.990Z,19.63
2023-05-22T03:51:19.320Z,20.30
2023-05-22T03:54:07.768Z,20.55
2023-05-22T03:56:55.218Z,20.73
2023-05-22T03:59:42.643Z,21.48
2023-05-22T04:05:57.067Z,19.70
2023-05-22T04:08:44.300Z,20.45
2023-05-22T04:11:32.258Z,20.95
2023-05-22T04:14:22.102Z,21.38
2023-05-22T04:17:09.534Z,20.40
2023-05-22T04:19:58.390Z,19.65
2023-05-22T04:22:46.376Z,19.52
2023-05-22T04:25:34.483Z,19.45
2023-05-22T04:28:25.500Z,20.13
2023-05-22T04:31:15.751Z,19.00
2023-05-22T04:34:04.250Z,18.63
2023-05-22T04:36:53.020Z,19.65
2023-05-22T04:39:40.700Z,17.75
2023-05-22T04:42:28.265Z,19.15
2023-05-22T04:45:15.478Z,18.10
2023-05-22T04:48:03.220Z,17.58
2023-05-22T04:50:51.054Z,17.25
2023-05-22T04:53:38.754Z,17.92
2023-05-22T04:59:17.772Z,17.92
2023-05-22T05:02:12.154Z,17.60
2023-05-22T05:04:59.714Z,18.15
2023-05-22T05:07:50.049Z,18.13
2023-05-22T05:10:38.096Z,17.48
2023-05-22T05:13:26.236Z,17.25
2023-05-22T05:16:13.569Z,17.38
2023-05-22T05:19:01.838Z,16.50
2023-05-22T05:21:50.113Z,16.35
2023-05-22T05:24:37.396Z,16.13
2023-05-22T05:27:24.761Z,15.95
2023-05-22T05:30:12.348Z,15.35
2023-05-22T05:32:59.582Z,15.25
2023-05-22T05:35:47.337Z,15.00
2023-05-22T05:38:34.782Z,15.15
2023-05-22T05:41:24.299Z,14.27
2023-05-22T05:44:11.617Z,14.48
2023-05-22T05:49:35.779Z,13.95
2023-05-22T05:52:27.315Z,13.50
2023-05-22T05:55:14.567Z,14.55
2023-05-22T05:58:01.791Z,14.52
2023-05-22T06:00:49.153Z,13.65
2023-05-22T06:03:36.639Z,15.60
2023-05-22T06:06:26.190Z,15.13
2023-05-22T06:09:26.013Z,16.70
2023-05-22T06:12:13.536Z,17.02
2023-05-22T06:15:06.465Z,14.95
2023-05-22T06:17:58.204Z,15.43
2023-05-22T06:20:46.242Z,14.65
2023-05-22T06:23:50.046Z,13.88
2023-05-22T06:27:02.386Z,15.43
2023-05-22T06:33:26.740Z,14.05
2023-05-22T06:41:47.763Z,15.40
2023-05-22T06:43:14.593Z,16.50
2023-05-22T06:45:41.060Z,15.57
2023-05-22T06:46:06.834Z,15.80
2023-05-22T06:48:57.445Z,15.73
2023-05-22T06:52:24.565Z,16.15
2023-05-22T06:55:42.428Z,14.30
2023-05-22T06:58:38.545Z,16.10
2023-05-22T07:01:27.463Z,15.20
2023-05-22T07:04:15.751Z,15.23
2023-05-22T07:07:04.196Z,15.00
2023-05-22T07:09:54.071Z,14.10
2023-05-22T07:16:48.950Z,16.48
2023-05-22T07:19:46.907Z,16.00
2023-05-22T07:22:34.242Z,15.18
2023-05-22T07:25:49.861Z,15.82
2023-05-22T07:28:46.476Z,14.65
2023-05-22T07:31:35.418Z,14.73
2023-05-22T07:34:24.461Z,13.98
2023-05-22T07:37:14.200Z,14.98
2023-05-22T07:40:12.031Z,13.68
2023-05-22T07:43:01.720Z,12.95
2023-05-22T07:46:10.797Z,13.15
2023-05-22T07:48:58.414Z,12.80
2023-05-22T07:51:47.570Z,13.60
2023-05-22T07:57:04.177Z,12.73
2023-05-22T07:57:50.101Z,13.13
2023-05-22T08:00:44.193Z,13.60
2023-05-22T08:04:06.863Z,12.40
2023-05-22T08:07:25.354Z,12.75
2023-05-22T08:10:17.784Z,12.23
2023-05-22T08:17:16.093Z,13.27
2023-05-22T08:29:38.955Z,12.68
2023-05-22T08:56:03.687Z,9.32
2023-05-22T09:04:07.192Z,9.40
2023-05-22T09:17:57.032Z,8.60
2023-05-22T09:22:20.413Z,10.00
2023-05-22T09:23:35.379Z,8.55
2023-05-22T09:29:57.383Z,9.13
2023-05-22T09:32:48.713Z,8.32
2023-05-22T09:48:00.978Z,8.13
2023-05-22T09:54:45.874Z,8.45
2023-05-22T09:57:42.149Z,8.93
2023-05-22T10:00:34.498Z,8.93
2023-05-22T10:03:45.892Z,8.25
2023-05-22T10:06:37.151Z,8.38
2023-05-22T10:09:31.465Z,9.13
2023-05-22T10:12:23.355Z,8.05
2023-05-22T10:18:01.716Z,7.85
2023-05-22T10:20:50.143Z,7.82
2023-05-22T10:23:37.972Z,8.70
2023-05-22T10:26:32.130Z,7.95
2023-05-22T10:29:29.848Z,7.68
2023-05-22T10:32:43.256Z,7.47
2023-05-22T10:35:58.262Z,8.25
2023-05-22T10:39:34.795Z,8.75
2023-05-22T10:42:22.331Z,7.72
2023-05-22T10:45:16.306Z,7.53
2023-05-22T10:48:31.868Z,8.20
2023-05-22T10:52:02.390Z,7.80
2023-05-22T10:57:57.134Z,7.65
2023-05-22T11:01:14.304Z,7.38
2023-05-22T11:04:33.467Z,6.45
2023-05-22T11:10:31.832Z,7.30
2023-05-22T11:13:22.055Z,7.70
2023-05-22T11:16:13.329Z,7.72
2023-05-22T11:22:23.710Z,7.70
2023-05-22T11:25:16.976Z,7.45
2023-05-22T11:28:05.896Z,6.68
2023-05-22T11:30:59.594Z,7.28
2023-05-22T11:36:52.387Z,7.28
2023-05-22T11:39:39.844Z,7.40
2023-05-22T11:42:36.726Z,7.40
2023-05-22T11:45:28.287Z,7.07
2023-05-22T11:48:15.938Z,7.40
2023-05-22T11:51:09.320Z,7.53
2023-05-22T11:54:00.003Z,7.57
2023-05-22T11:56:48.557Z,6.88
2023-05-22T12:00:20.144Z,7.60
2023-05-22T12:07:06.518Z,7.30
2023-05-22T12:09:57.416Z,7.67
2023-05-22T12:16:14.164Z,7.53
2023-05-22T12:22:08.850Z,7.47
2023-05-22T12:22:58.600Z,8.50
2023-05-22T12:25:47.906Z,8.20
2023-05-22T12:28:42.026Z,8.43
2023-05-22T12:34:47.586Z,8.13
2023-05-22T12:40:48.618Z,8.65
2023-05-22T12:44:03.272Z,9.27
2023-05-22T12:50:13.558Z,8.43
2023-05-22T12:59:35.772Z,7.70
2023-05-22T13:07:10.150Z,7.63
2023-05-22T13:09:39.442Z,7.22
2023-05-22T13:15:49.758Z,7.95
2023-05-22T14:03:02.200Z,7.75
2023-05-22T14:06:27.354Z,8.98
2023-05-22T14:12:52.711Z,10.13
2023-05-22T14:30:31.273Z,8.45
2023-05-22T14:33:42.360Z,8.48
2023-05-22T14:36:34.595Z,9.77
2023-05-22T14:39:22.522Z,8.77
2023-05-22T14:42:11.341Z,8.25
2023-05-22T14:44:59.019Z,9.13
2023-05-22T14:47:53.396Z,8.85
2023-05-22T14:51:53.256Z,8.98
2023-05-22T14:57:23.752Z,9.70
2023-05-22T15:00:12.762Z,11.38
2023-05-22T15:03:36.578Z,11.02
2023-05-22T15:06:24.440Z,11.07
2023-05-22T15:09:18.370Z,10.75
2023-05-22T15:12:06.584Z,10.40
2023-05-22T15:14:54.584Z,10.52
2023-05-22T15:17:53.231Z,10.05
2023-05-22T15:20:41.426Z,9.70
2023-05-22T15:23:30.879Z,9.90
2023-05-22T15:26:18.396Z,9.20
2023-05-22T15:29:13.317Z,8.40
2023-05-22T15:32:08.289Z,7.97
2023-05-22T15:44:39.005Z,6.90
2023-05-22T15:47:26.760Z,6.45
2023-05-22T15:50:14.445Z,6.35
2023-05-22T15:53:02.841Z,6.18
2023-05-22T15:58:59.792Z,6.03
2023-05-22T16:02:10.726Z,5.88
2023-05-22T16:04:59.787Z,5.88
2023-05-22T16:07:54.188Z,6.30
2023-05-22T16:14:00.846Z,6.82
2023-05-22T16:16:48.781Z,6.90
2023-05-22T16:19:36.840Z,6.47
2023-05-22T16:22:33.051Z,6.35
2023-05-22T16:25:43.574Z,6.53
2023-05-22T16:28:32.529Z,5.60
2023-05-22T16:32:14.901Z,5.78
2023-05-22T16:35:32.221Z,5.73
2023-05-22T16:38:20.050Z,6.68
2023-05-22T16:41:09.327Z,7.22
2023-05-22T16:43:56.972Z,7.20
2023-05-22T16:46:47.626Z,7.22
2023-05-22T16:49:42.794Z,6.72
2023-05-22T16:57:55.089Z,7.57
2023-05-22T16:59:58.091Z,7.20
2023-05-22T17:02:48.534Z,7.53
2023-05-22T17:05:38.195Z,6.88
2023-05-22T17:08:29.203Z,7.18
2023-05-22T17:11:21.149Z,7.88
2023-05-22T17:14:09.012Z,7.50
2023-05-22T17:17:11.476Z,7.43
2023-05-22T17:20:01.168Z,7.72
2023-05-22T17:22:48.822Z,6.75
2023-05-22T17:25:38.033Z,7.00
2023-05-22T17:28:28.539Z,7.72
2023-05-22T17:31:16.756Z,7.00
2023-05-22T17:34:17.476Z,8.32
2023-05-22T17:37:09.007Z,7.15
2023-05-22T17:39:56.568Z,8.80
2023-05-22T17:42:44.116Z,7.47
2023-05-22T17:45:38.972Z,7.53
2023-05-22T17:51:30.985Z,8.07
2023-05-22T17:58:24.969Z,9.23
2023-05-22T18:01:15.410Z,9.43
2023-05-22T18:04:18.961Z,8.70
2023-05-22T18:07:20.471Z,9.18
2023-05-22T18:10:11.285Z,9.13
2023-05-22T18:13:03.399Z,9.13
2023-05-22T18:15:51.797Z,8.63
2023-05-22T18:18:39.361Z,9.07
2023-05-22T18:21:26.931Z,9.35
2023-05-22T18:24:15.072Z,9.80
2023-05-22T18:27:03.060Z,9.23
2023-05-22T18:29:51.855Z,9.43
2023-05-22T18:32:40.378Z,9.23
2023-05-22T18:35:28.055Z,9.43
2023-05-22T18:38:17.884Z,9.95
2023-05-22T18:41:07.111Z,9.20
2023-05-22T18:43:57.855Z,9.60
2023-05-22T18:46:45.335Z,9.32
2023-05-22T18:49:36.345Z,9.63
2023-05-22T18:52:23.912Z,9.30
2023-05-22T18:55:12.913Z,9.85
2023-05-22T18:58:00.681Z,11.32
2023-05-22T19:00:52.680Z,10.65
2023-05-22T19:03:41.902Z,11.65
2023-05-22T19:06:31.330Z,11.10
2023-05-22T19:09:18.685Z,11.02
2023-05-22T19:12:10.178Z,10.88
2023-05-22T19:14:58.979Z,11.13
2023-05-22T19:17:46.583Z,11.65
2023-05-22T19:20:37.280Z,11.55
2023-05-22T19:23:25.920Z,12.02
2023-05-22T19:26:13.376Z,11.63
2023-05-22T19:29:00.694Z,11.88
2023-05-22T19:31:56.269Z,12.38
2023-05-22T19:34:44.149Z,12.05
2023-05-22T19:37:38.231Z,12.13
2023-05-22T19:40:26.136Z,12.45
2023-05-22T19:43:16.463Z,12.63
2023-05-22T19:46:08.553Z,14.65
2023-05-22T19:49:02.863Z,13.90
2023-05-22T19:51:56.158Z,14.60
2023-05-22T19:54:49.219Z,14.73
2023-05-22T19:57:40.000Z,16.65
2023-05-22T20:00:31.683Z,15.73
2023-05-22T20:03:22.772Z,15.23
2023-05-22T20:06:10.235Z,16.98
2023-05-22T20:08:58.270Z,15.70
2023-05-22T20:11:53.503Z,17.00
2023-05-22T20:15:03.127Z,16.67
2023-05-22T20:17:56.207Z,17.50
2023-05-22T20:20:43.798Z,15.68
2023-05-22T20:23:31.406Z,15.85
2023-05-22T20:26:20.228Z,16.23
2023-05-22T20:29:11.979Z,15.98
2023-05-22T20:32:00.832Z,15.97
2023-05-22T20:34:52.724Z,16.17
2023-05-22T20:37:41.764Z,15.32
2023-05-22T20:40:32.341Z,16.10
2023-05-22T20:43:21.417Z,14.30
2023-05-22T20:46:09.894Z,15.38
2023-05-22T20:48:58.650Z,14.57
2023-05-22T20:51:49.099Z,15.63
2023-05-22T20:54:36.765Z,15.63
2023-05-22T20:57:27.785Z,15.25
2023-05-22T21:00:15.176Z,15.40
2023-05-22T21:03:02.573Z,15.32
2023-05-22T21:05:50.025Z,16.17
2023-05-22T21:08:40.050Z,15.35
2023-05-22T21:11:27.963Z,15.90
2023-05-22T21:14:17.276Z,16.05
2023-05-22T21:17:08.322Z,16.58
2023-05-22T21:19:59.047Z,16.50
2023-05-22T21:22:48.234Z,16.95
2023-05-22T21:25:36.524Z,17.42
2023-05-22T21:28:23.745Z,17.10
2023-05-22T21:31:15.640Z,17.52
2023-05-22T21:34:03.123Z,16.75
2023-05-22T21:36:51.714Z,17.02
2023-05-22T21:39:39.197Z,17.70
2023-05-22T21:42:45.968Z,16.77
2023-05-22T21:45:40.774Z,16.23
2023-05-22T21:48:28.133Z,17.20
2023-05-22T21:51:18.157Z,16.83
2023-05-22T21:54:07.750Z,17.23
2023-05-22T21:56:57.517Z,18.08
2023-05-22T21:59:44.872Z,17.65
2023-05-22T22:02:32.216Z,18.35
2023-05-22T22:05:19.574Z,19.23
2023-05-22T22:08:12.297Z,17.55
2023-05-22T22:13:47.273Z,19.05
2023-05-22T22:16:43.610Z,18.85
2023-05-22T22:19:31.194Z,18.90
2023-05-22T22:22:22.890Z,17.67
2023-05-22T22:25:10.705Z,18.13
2023-05-22T22:27:59.434Z,17.45
2023-05-22T22:30:49.435Z,17.13
2023-05-22T22:33:36.872Z,17.63
2023-05-22T22:36:24.332Z,18.13
2023-05-22T22:39:11.863Z,18.58
2023-05-22T22:42:07.889Z,18.35
2023-05-22T22:45:00.477Z,18.05
2023-05-22T22:50:39.050Z,18.80
2023-05-22T22:53:29.536Z,18.98
2023-05-22T22:56:17.440Z,18.30
2023-05-22T22:59:08.377Z,18.85
2023-05-22T23:01:57.106Z,18.80
2023-05-22T23:04:44.568Z,17.40
2023-05-22T23:07:37.402Z,18.30
2023-05-22T23:10:25.738Z,18.42
2023-05-22T23:13:17.461Z,16.83
2023-05-22T23:16:10.994Z,17.00
2023-05-22T23:19:03.495Z,14.90
2023-05-22T23:21:52.586Z,15.20
2023-05-22T23:24:39.844Z,15.32
2023-05-22T23:27:27.190Z,14.73
2023-05-22T23:30:19.748Z,16.15
2023-05-22T23:33:11.708Z,17.02
2023-05-22T23:36:02.618Z,17.15
2023-05-22T23:38:54.127Z,17.58
2023-05-22T23:41:42.399Z,20.30
2023-05-22T23:44:31.816Z,20.67
2023-05-22T23:47:19.241Z,22.02
2023-05-22T23:50:07.193Z,20.65
2023-05-22T23:52:55.042Z,20.98
2023-05-22T23:55:42.638Z,23.58
2023-05-22T23:58:30.405Z,24.70
